Terminal Aerodrome Forecast
Issued by NWS Chicago, IL

Home | Current Version | Previous Version | Graphics & Text | Print | Product List | Glossary On
Versions: 1 2 3 4 5 6 7 8 9 10 11 12 13 14 15 16 17 18 19 20 21 22 23 24 25 26 27 28 29 30 31
000
FTUS43 KLOT 300536
TAFRFD
TAF
KRFD 300536Z 3006/0106 VRB03KT P6SM SCT030 BKN050
     FM300800 VRB03KT 3SM BR SCT010 BKN020
     FM301000 VRB03KT 1SM BR SCT002
     FM301400 31009KT P6SM BKN035
     FM301800 35012KT P6SM BKN045
     FM010300 VRB04KT P6SM BKN020=

USA.gov is the U.S. government's official web portal to all federal, state and local government web resources and services.